createdAt,value
2019-02-15T00:01:19.519Z,8.17
2019-02-15T00:03:49.110Z,8.23
2019-02-15T00:06:19.519Z,8.00
2019-02-15T00:08:48.393Z,8.00
2019-02-15T00:11:17.661Z,8.03
2019-02-15T00:13:47.669Z,10.40
2019-02-15T00:16:17.245Z,7.50
2019-02-15T00:19:00.189Z,11.10
2019-02-15T00:21:32.356Z,11.90
2019-02-15T00:24:02.199Z,9.00
2019-02-15T00:26:31.749Z,11.03
2019-02-15T00:29:01.326Z,8.07
2019-02-15T00:31:31.124Z,10.63
2019-02-15T00:34:00.036Z,9.30
2019-02-15T00:36:29.596Z,8.50
2019-02-15T00:39:03.753Z,7.47
2019-02-15T00:41:33.292Z,7.13
2019-02-15T00:44:07.028Z,7.30
2019-02-15T00:46:55.778Z,6.77
2019-02-15T00:49:34.640Z,9.57
2019-02-15T00:52:35.326Z,12.40
2019-02-15T00:55:23.988Z,15.90
2019-02-15T00:58:04.025Z,5.83
2019-02-15T01:00:54.948Z,6.20
2019-02-15T01:03:49.114Z,7.37
2019-02-15T01:06:41.145Z,5.70
2019-02-15T01:09:26.224Z,6.47
2019-02-15T01:12:11.260Z,5.43
2019-02-15T01:14:41.195Z,6.43
2019-02-15T01:17:11.219Z,6.80
2019-02-15T01:19:40.094Z,6.33
2019-02-15T01:22:10.976Z,8.27
2019-02-15T01:24:39.884Z,5.57
2019-02-15T01:27:37.448Z,5.90
2019-02-15T01:30:30.625Z,7.70
2019-02-15T01:33:13.188Z,6.87
2019-02-15T01:36:13.793Z,6.30
2019-02-15T01:39:08.206Z,6.17
2019-02-15T01:41:52.704Z,6.43
2019-02-15T01:44:37.582Z,5.57
2019-02-15T01:47:28.405Z,8.37
2019-02-15T01:49:57.304Z,7.80
2019-02-15T01:52:26.445Z,7.00
2019-02-15T01:54:55.973Z,7.87
2019-02-15T01:57:25.840Z,8.53
2019-02-15T01:59:55.636Z,7.97
2019-02-15T02:02:26.970Z,5.83
2019-02-15T02:04:56.553Z,5.40
2019-02-15T02:07:26.412Z,5.17
2019-02-15T02:09:56.280Z,6.23
2019-02-15T02:12:25.859Z,6.27
2019-02-15T02:14:58.775Z,6.73
2019-02-15T02:17:27.660Z,3.77
2019-02-15T02:20:01.108Z,9.13
2019-02-15T02:22:30.948Z,6.13
2019-02-15T02:25:04.485Z,4.27
2019-02-15T02:27:33.356Z,5.67
2019-02-15T02:30:09.334Z,5.00
2019-02-15T02:32:39.363Z,5.70
2019-02-15T02:35:12.702Z,4.60
2019-02-15T02:37:42.256Z,4.90
2019-02-15T02:40:15.951Z,5.87
2019-02-15T02:42:45.771Z,6.27
2019-02-15T02:45:17.377Z,5.13
2019-02-15T02:47:46.251Z,5.90
2019-02-15T02:50:20.526Z,6.00
2019-02-15T02:52:49.986Z,5.77
2019-02-15T02:55:22.631Z,6.63
2019-02-15T02:57:52.370Z,6.00
2019-02-15T03:00:33.274Z,9.67
2019-02-15T03:02:56.663Z,5.37
2019-02-15T03:05:28.154Z,4.80
2019-02-15T03:07:57.121Z,6.17
2019-02-15T03:10:29.436Z,6.30
2019-02-15T03:13:00.394Z,5.40
2019-02-15T03:15:34.239Z,8.70
2019-02-15T03:18:03.758Z,7.47
2019-02-15T03:20:34.739Z,6.33
2019-02-15T03:23:04.561Z,7.53
2019-02-15T03:25:38.805Z,5.97
2019-02-15T03:28:08.348Z,6.00
2019-02-15T03:30:41.320Z,8.57
2019-02-15T03:33:10.948Z,6.00
2019-02-15T03:35:55.017Z,8.00
2019-02-15T03:38:31.758Z,8.83
2019-02-15T03:41:03.396Z,7.47
2019-02-15T03:43:32.932Z,7.67
2019-02-15T03:46:02.921Z,8.37
2019-02-15T03:48:31.765Z,9.73
2019-02-15T03:51:00.634Z,7.03
2019-02-15T03:53:30.439Z,8.47
2019-02-15T03:55:59.346Z,6.70
2019-02-15T03:58:28.873Z,7.23
2019-02-15T04:00:58.756Z,6.80
2019-02-15T04:03:28.735Z,8.47
2019-02-15T04:06:02.131Z,7.73
2019-02-15T04:08:31.922Z,7.20
2019-02-15T04:11:05.945Z,6.53
2019-02-15T04:13:35.718Z,7.70
2019-02-15T04:16:10.542Z,7.77
2019-02-15T04:18:39.433Z,10.93
2019-02-15T04:21:13.083Z,7.80
2019-02-15T04:23:42.670Z,7.97
2019-02-15T04:26:16.297Z,9.30
2019-02-15T04:28:45.870Z,7.40
2019-02-15T04:31:18.857Z,5.97
2019-02-15T04:33:47.995Z,5.83
2019-02-15T04:36:22.201Z,7.27
2019-02-15T04:38:52.009Z,11.17
2019-02-15T04:41:24.329Z,10.10
2019-02-15T04:43:53.244Z,7.57
2019-02-15T04:46:26.254Z,8.87
2019-02-15T04:48:55.800Z,7.03
2019-02-15T04:51:28.790Z,11.93
2019-02-15T04:53:58.581Z,7.93
2019-02-15T04:56:31.681Z,7.30
2019-02-15T04:59:01.257Z,9.13
2019-02-15T05:01:34.150Z,9.47
2019-02-15T05:04:03.261Z,9.53
2019-02-15T05:06:36.890Z,10.00
2019-02-15T05:09:06.768Z,10.40
2019-02-15T05:11:39.946Z,7.87
2019-02-15T05:14:09.462Z,8.17
2019-02-15T05:16:43.459Z,8.77
2019-02-15T05:19:13.685Z,9.97
2019-02-15T05:21:45.996Z,10.37
2019-02-15T05:24:15.596Z,8.60
2019-02-15T05:26:47.468Z,8.67
2019-02-15T05:29:17.008Z,10.83
2019-02-15T05:31:49.664Z,14.20
2019-02-15T05:34:19.202Z,13.10
2019-02-15T05:36:53.161Z,21.10
2019-02-15T05:39:22.075Z,24.40
2019-02-15T05:41:56.591Z,18.90
2019-02-15T05:44:26.424Z,15.60
2019-02-15T05:46:59.953Z,13.93
2019-02-15T05:49:29.526Z,9.93
2019-02-15T05:52:03.273Z,10.90
2019-02-15T05:54:39.861Z,12.03
2019-02-15T05:57:10.824Z,10.37
2019-02-15T05:59:39.664Z,8.73
2019-02-15T06:02:11.986Z,12.10
2019-02-15T06:04:41.802Z,10.40
2019-02-15T06:07:13.023Z,9.23
2019-02-15T06:09:41.953Z,9.23
2019-02-15T06:12:34.265Z,10.97
2019-02-15T06:15:14.496Z,7.67
2019-02-15T06:17:35.953Z,11.97
2019-02-15T06:20:05.849Z,13.90
2019-02-15T06:22:35.417Z,10.23
2019-02-15T06:25:05.395Z,8.90
2019-02-15T06:27:34.953Z,8.57
2019-02-15T06:30:04.745Z,9.83
2019-02-15T06:32:34.546Z,10.50
2019-02-15T06:35:04.306Z,9.97
2019-02-15T06:37:34.113Z,9.70
2019-02-15T06:40:06.011Z,8.83
2019-02-15T06:42:38.859Z,10.23
2019-02-15T06:45:08.539Z,9.63
2019-02-15T06:47:44.681Z,8.60
2019-02-15T06:50:14.504Z,7.10
2019-02-15T06:52:43.472Z,8.03
2019-02-15T06:55:13.481Z,6.80
2019-02-15T06:57:43.062Z,7.93
2019-02-15T07:00:42.574Z,9.20
2019-02-15T07:03:20.497Z,8.03
2019-02-15T07:05:50.355Z,13.93
2019-02-15T07:08:19.220Z,9.50
2019-02-15T07:10:48.800Z,11.40
2019-02-15T07:13:19.647Z,11.87
2019-02-15T07:15:50.863Z,13.67
2019-02-15T07:18:19.830Z,18.40
2019-02-15T07:20:55.708Z,19.47
2019-02-15T07:23:25.245Z,18.03
2019-02-15T07:25:58.050Z,20.00
2019-02-15T07:28:26.996Z,15.33
2019-02-15T07:31:00.738Z,23.37
2019-02-15T07:33:29.907Z,22.47
2019-02-15T07:36:07.116Z,17.67
2019-02-15T07:38:36.655Z,17.03
2019-02-15T07:41:08.235Z,15.27
2019-02-15T07:43:37.853Z,18.97
2019-02-15T07:46:13.968Z,19.07
2019-02-15T07:48:43.543Z,15.30
2019-02-15T07:51:13.945Z,25.20
2019-02-15T07:53:43.503Z,18.27
2019-02-15T07:56:15.458Z,19.50
2019-02-15T07:58:45.277Z,12.03
2019-02-15T08:01:27.012Z,11.73
2019-02-15T08:03:55.915Z,12.43
2019-02-15T08:06:25.483Z,10.23
2019-02-15T08:08:55.056Z,9.57
2019-02-15T08:11:24.884Z,8.03
2019-02-15T08:13:54.441Z,9.70
2019-02-15T08:16:34.553Z,11.67
2019-02-15T08:19:04.129Z,11.60
2019-02-15T08:21:33.247Z,23.70
2019-02-15T08:24:02.822Z,25.37
2019-02-15T08:26:32.709Z,14.17
2019-02-15T08:29:02.300Z,16.97
2019-02-15T08:31:41.352Z,17.17
2019-02-15T08:34:11.341Z,16.07
2019-02-15T08:36:40.253Z,26.40
2019-02-15T08:39:12.606Z,16.50
2019-02-15T08:42:00.770Z,13.07
2019-02-15T08:44:16.391Z,12.23
2019-02-15T08:46:46.097Z,10.53
2019-02-15T08:49:15.916Z,8.47
2019-02-15T08:51:46.933Z,10.50
2019-02-15T08:54:16.589Z,9.83
2019-02-15T08:56:49.102Z,11.57
2019-02-15T08:59:18.786Z,11.17
2019-02-15T09:02:12.221Z,11.07
2019-02-15T09:04:42.147Z,7.67
2019-02-15T09:07:12.233Z,10.43
2019-02-15T09:09:41.830Z,9.77
2019-02-15T09:12:13.908Z,12.00
2019-02-15T09:14:43.750Z,8.20
2019-02-15T09:17:12.922Z,6.80
2019-02-15T09:19:42.865Z,12.47
2019-02-15T09:22:12.786Z,8.90
2019-02-15T09:24:43.204Z,10.50
2019-02-15T09:27:30.117Z,13.30
2019-02-15T09:29:59.044Z,9.53
2019-02-15T09:32:28.581Z,8.17
2019-02-15T09:34:58.706Z,15.43
2019-02-15T09:37:28.185Z,14.30
2019-02-15T09:39:57.787Z,11.50
2019-02-15T09:42:28.614Z,11.80
2019-02-15T09:44:58.193Z,12.33
2019-02-15T09:47:27.734Z,10.70
2019-02-15T09:49:56.935Z,11.17
2019-02-15T09:52:25.828Z,11.93
2019-02-15T09:54:55.386Z,11.47
2019-02-15T09:57:29.965Z,9.97
2019-02-15T09:59:59.529Z,10.37
2019-02-15T10:02:29.786Z,10.00
2019-02-15T10:05:01.314Z,9.67
2019-02-15T10:07:30.864Z,11.57
2019-02-15T10:10:00.422Z,12.47
2019-02-15T10:12:31.472Z,10.53
2019-02-15T10:15:00.406Z,13.50
2019-02-15T10:17:34.551Z,11.10
2019-02-15T10:20:03.538Z,10.03
2019-02-15T10:22:37.118Z,8.20
2019-02-15T10:25:06.294Z,10.77
2019-02-15T10:27:44.753Z,9.87
2019-02-15T10:30:14.334Z,12.23
2019-02-15T10:32:44.360Z,11.03
2019-02-15T10:35:15.190Z,15.17
2019-02-15T10:37:45.998Z,10.87
2019-02-15T10:40:15.541Z,14.33
2019-02-15T10:42:49.439Z,11.73
2019-02-15T10:45:19.269Z,12.53
2019-02-15T10:47:55.080Z,12.00
2019-02-15T10:50:24.627Z,14.30
2019-02-15T10:52:59.594Z,13.33
2019-02-15T10:55:29.194Z,12.40
2019-02-15T10:57:59.029Z,12.93
2019-02-15T11:00:28.580Z,11.63
2019-02-15T11:03:02.033Z,15.23
2019-02-15T11:05:31.858Z,12.97
2019-02-15T11:08:09.833Z,13.70
2019-02-15T11:10:39.421Z,12.80
2019-02-15T11:13:13.106Z,12.27
2019-02-15T11:15:45.204Z,13.27
2019-02-15T11:18:15.275Z,13.23
2019-02-15T11:20:44.818Z,11.97
2019-02-15T11:23:22.236Z,10.43
2019-02-15T11:25:52.046Z,10.13
2019-02-15T11:28:21.618Z,11.47
2019-02-15T11:30:52.182Z,12.40
2019-02-15T11:33:22.030Z,10.83
2019-02-15T11:35:51.577Z,15.03
2019-02-15T11:38:23.729Z,8.60
2019-02-15T11:40:53.541Z,12.50
2019-02-15T11:43:24.884Z,9.90
2019-02-15T11:45:54.582Z,7.70
2019-02-15T11:48:26.963Z,10.20
2019-02-15T11:50:56.686Z,11.83
2019-02-15T11:53:38.578Z,9.20
2019-02-15T11:56:08.180Z,10.67
2019-02-15T11:58:37.749Z,11.80
2019-02-15T12:01:08.085Z,10.80
2019-02-15T12:03:37.707Z,9.43
2019-02-15T12:06:07.329Z,8.67
2019-02-15T12:08:40.215Z,10.17
2019-02-15T12:11:11.792Z,6.60
2019-02-15T12:13:42.522Z,12.77
2019-02-15T12:16:12.453Z,10.17
2019-02-15T12:18:42.594Z,8.50
2019-02-15T12:21:13.477Z,10.43
2019-02-15T12:23:49.222Z,10.60
2019-02-15T12:26:19.234Z,9.10
2019-02-15T12:28:48.835Z,7.80
2019-02-15T12:31:18.468Z,7.87
2019-02-15T12:33:52.288Z,13.67
2019-02-15T12:36:21.819Z,8.73
2019-02-15T12:38:59.175Z,9.97
2019-02-15T12:41:29.009Z,10.77
2019-02-15T12:43:58.563Z,9.57
2019-02-15T12:46:28.136Z,9.63
2019-02-15T12:49:04.090Z,10.43
2019-02-15T12:51:33.851Z,10.77
2019-02-15T12:54:07.502Z,10.50
2019-02-15T12:56:37.669Z,15.30
2019-02-15T12:59:13.793Z,7.43
2019-02-15T13:01:43.426Z,7.00
2019-02-15T13:04:13.416Z,7.90
2019-02-15T13:06:43.234Z,11.77
2019-02-15T13:09:20.366Z,9.97
2019-02-15T13:11:50.251Z,10.00
2019-02-15T13:14:19.861Z,13.20
2019-02-15T13:16:49.673Z,11.93
2019-02-15T13:19:22.248Z,11.10
2019-02-15T13:21:52.336Z,13.53
2019-02-15T13:24:27.776Z,10.57
2019-02-15T13:26:57.311Z,11.20
2019-02-15T13:29:27.134Z,10.57
2019-02-15T13:31:56.719Z,9.83
2019-02-15T13:34:27.730Z,9.53
2019-02-15T13:36:58.590Z,9.07
2019-02-15T13:39:31.639Z,10.23
2019-02-15T13:42:01.689Z,10.37
2019-02-15T13:44:33.936Z,9.53
2019-02-15T13:47:03.860Z,14.43
2019-02-15T13:49:36.465Z,7.77
2019-02-15T13:52:06.378Z,7.23
2019-02-15T13:54:39.782Z,9.97
2019-02-15T13:57:09.393Z,11.87
2019-02-15T13:59:41.724Z,7.60
2019-02-15T14:02:12.107Z,7.27
2019-02-15T14:04:45.354Z,7.70
2019-02-15T14:07:23.929Z,9.13
2019-02-15T14:09:53.489Z,7.00
2019-02-15T14:12:23.576Z,10.17
2019-02-15T14:14:53.566Z,9.90
2019-02-15T14:17:23.133Z,13.13
2019-02-15T14:19:54.381Z,12.87
2019-02-15T14:22:23.989Z,11.23
2019-02-15T14:24:56.329Z,11.63
2019-02-15T14:27:26.318Z,9.50
2019-02-15T14:30:02.579Z,7.93
2019-02-15T14:32:32.156Z,9.63
2019-02-15T14:35:03.092Z,10.60
2019-02-15T14:37:35.117Z,8.17
2019-02-15T14:43:00.601Z,6.43
2019-02-15T14:45:30.589Z,8.13
2019-02-15T14:48:00.272Z,9.20
2019-02-15T14:50:36.793Z,7.50
2019-02-15T14:53:05.708Z,5.67
2019-02-15T14:55:42.894Z,6.97
2019-02-15T14:58:16.884Z,5.53
2019-02-15T15:00:48.824Z,7.23
2019-02-15T15:03:20.188Z,5.97
2019-02-15T15:05:49.757Z,6.50
2019-02-15T15:08:22.433Z,8.70
2019-02-15T15:10:51.987Z,6.03
2019-02-15T15:13:25.295Z,7.53
2019-02-15T15:15:55.257Z,9.23
2019-02-15T15:18:27.834Z,7.23
2019-02-15T15:20:57.408Z,6.43
2019-02-15T15:23:30.538Z,8.13
2019-02-15T15:25:59.613Z,7.03
2019-02-15T15:28:33.985Z,10.43
2019-02-15T15:31:03.823Z,16.17
2019-02-15T15:33:35.740Z,8.00
2019-02-15T15:36:05.436Z,14.63
2019-02-15T15:38:38.355Z,7.73
2019-02-15T15:41:07.256Z,10.20
2019-02-15T15:43:42.081Z,6.00
2019-02-15T15:46:11.313Z,6.67
2019-02-15T15:48:43.177Z,7.80
2019-02-15T15:51:13.911Z,8.37
2019-02-15T15:53:48.082Z,9.33
2019-02-15T15:56:17.624Z,9.97
2019-02-15T15:58:51.599Z,10.53
2019-02-15T16:01:20.813Z,9.70
2019-02-15T16:03:55.834Z,8.20
2019-02-15T16:06:24.882Z,10.33
2019-02-15T16:08:57.517Z,5.60
2019-02-15T16:11:27.078Z,8.07
2019-02-15T16:14:01.845Z,8.87
2019-02-15T16:16:31.414Z,9.40
2019-02-15T16:19:05.100Z,7.43
2019-02-15T16:21:34.440Z,8.33
2019-02-15T16:24:12.631Z,10.77
2019-02-15T16:26:41.181Z,12.20
2019-02-15T16:29:10.502Z,13.70
2019-02-15T16:31:40.106Z,16.23
2019-02-15T16:34:13.815Z,12.03
2019-02-15T16:36:43.389Z,14.37
2019-02-15T16:39:18.326Z,12.00
2019-02-15T16:41:47.283Z,9.03
2019-02-15T16:44:19.915Z,12.50
2019-02-15T16:46:49.854Z,9.83
2019-02-15T16:49:30.397Z,10.10
2019-02-15T16:52:00.309Z,12.90
2019-02-15T16:54:29.886Z,17.77
2019-02-15T16:56:59.088Z,12.27
2019-02-15T16:59:28.175Z,22.13
2019-02-15T17:01:57.717Z,15.10
2019-02-15T17:04:29.904Z,17.83
2019-02-15T17:06:59.862Z,9.37
2019-02-15T17:09:31.537Z,9.20
2019-02-15T17:12:01.241Z,9.83
2019-02-15T17:14:34.906Z,8.97
2019-02-15T17:17:04.701Z,8.50
2019-02-15T17:19:43.316Z,9.50
2019-02-15T17:22:13.303Z,9.27
2019-02-15T17:24:42.543Z,10.37
2019-02-15T17:27:12.290Z,7.37
2019-02-15T17:29:41.519Z,8.67
2019-02-15T17:32:11.133Z,8.67
2019-02-15T17:34:45.620Z,7.10
2019-02-15T17:37:14.888Z,6.63
2019-02-15T17:39:48.845Z,8.80
2019-02-15T17:42:18.421Z,8.80
2019-02-15T17:44:51.269Z,11.50
2019-02-15T17:47:20.913Z,8.70
2019-02-15T17:49:56.780Z,10.03
2019-02-15T17:52:25.710Z,10.13
2019-02-15T17:55:00.871Z,10.20
2019-02-15T17:57:31.325Z,13.87
2019-02-15T18:00:00.397Z,12.27
2019-02-15T18:02:29.936Z,13.27
2019-02-15T18:05:04.315Z,9.00
2019-02-15T18:07:33.901Z,12.57
2019-02-15T18:10:05.903Z,10.30
2019-02-15T18:12:35.303Z,7.83
2019-02-15T18:15:12.851Z,8.97
2019-02-15T18:17:42.464Z,11.50
2019-02-15T18:20:15.522Z,12.90
2019-02-15T18:22:45.139Z,12.13
2019-02-15T18:25:17.476Z,13.30
2019-02-15T18:27:47.411Z,11.17
2019-02-15T18:30:24.347Z,8.23
2019-02-15T18:32:56.826Z,9.10
2019-02-15T18:35:38.573Z,9.83
2019-02-15T18:38:08.589Z,9.63
2019-02-15T18:40:45.017Z,7.17
2019-02-15T18:43:14.587Z,11.90
2019-02-15T18:45:44.406Z,9.63
2019-02-15T18:48:13.980Z,7.83
2019-02-15T18:50:44.489Z,9.23
2019-02-15T18:53:14.076Z,7.70
2019-02-15T18:55:42.995Z,12.77
2019-02-15T18:58:15.189Z,12.27
2019-02-15T19:00:44.750Z,8.70
2019-02-15T19:03:14.397Z,18.37
2019-02-15T19:05:43.765Z,18.10
2019-02-15T19:08:13.309Z,21.50
2019-02-15T19:10:43.945Z,26.80
2019-02-15T19:13:14.436Z,22.00
2019-02-15T19:15:43.764Z,17.10
2019-02-15T19:18:12.917Z,11.83
2019-02-15T19:20:46.015Z,15.23
2019-02-15T19:23:15.610Z,33.97
2019-02-15T19:25:49.533Z,32.97
2019-02-15T19:28:19.142Z,22.97
2019-02-15T19:30:51.721Z,20.20
2019-02-15T19:33:21.634Z,19.23
2019-02-15T19:35:54.661Z,15.83
2019-02-15T19:38:24.409Z,20.57
2019-02-15T19:40:56.853Z,20.87
2019-02-15T19:43:26.490Z,19.77
2019-02-15T19:46:00.495Z,20.00
2019-02-15T19:48:29.657Z,25.40
2019-02-15T19:51:05.869Z,18.30
2019-02-15T19:53:36.314Z,21.13
2019-02-15T19:56:13.686Z,17.27
2019-02-15T19:58:43.832Z,19.90
2019-02-15T20:01:13.940Z,13.53
2019-02-15T20:03:43.153Z,11.40
2019-02-15T20:06:14.448Z,17.13
2019-02-15T20:08:43.337Z,10.70
2019-02-15T20:11:17.484Z,8.33
2019-02-15T20:13:47.221Z,14.10
2019-02-15T20:16:18.932Z,12.97
2019-02-15T20:18:48.089Z,10.30
2019-02-15T20:21:22.285Z,9.93
2019-02-15T20:23:51.652Z,16.27
2019-02-15T20:26:26.768Z,15.77
2019-02-15T20:28:56.348Z,11.90
2019-02-15T20:31:27.799Z,10.77
2019-02-15T20:33:57.347Z,9.63
2019-02-15T20:36:30.336Z,10.90
2019-02-15T20:39:00.393Z,11.83
2019-02-15T20:41:32.317Z,12.00
2019-02-15T20:44:02.304Z,14.93
2019-02-15T20:46:36.278Z,15.23
2019-02-15T20:49:06.009Z,13.57
2019-02-15T20:51:40.588Z,24.37
2019-02-15T20:54:09.509Z,44.77
2019-02-15T20:56:46.069Z,38.67
2019-02-15T20:59:15.882Z,30.80
2019-02-15T21:01:44.833Z,26.13
2019-02-15T21:04:14.360Z,15.73
2019-02-15T21:06:47.091Z,18.20
2019-02-15T21:09:15.970Z,18.33
2019-02-15T21:11:48.985Z,11.97
2019-02-15T21:14:18.817Z,9.63
2019-02-15T21:16:52.025Z,8.40
2019-02-15T21:19:21.593Z,6.67
2019-02-15T21:21:55.126Z,8.23
2019-02-15T21:24:24.670Z,9.20
2019-02-15T21:26:59.717Z,7.27
2019-02-15T21:29:29.553Z,7.67
2019-02-15T21:32:02.567Z,8.40
2019-02-15T21:34:32.140Z,6.60
2019-02-15T21:37:06.477Z,7.90
2019-02-15T21:39:36.013Z,10.33
2019-02-15T21:42:13.175Z,9.47
2019-02-15T21:44:42.722Z,11.80
2019-02-15T21:47:11.639Z,8.53
2019-02-15T21:49:41.476Z,8.67
2019-02-15T21:52:16.881Z,10.13
2019-02-15T21:54:46.540Z,9.27
2019-02-15T21:57:17.173Z,6.57
2019-02-15T21:59:47.744Z,7.90
2019-02-15T22:02:19.796Z,6.43
2019-02-15T22:04:49.337Z,7.77
2019-02-15T22:07:22.508Z,7.13
2019-02-15T22:09:52.069Z,9.80
2019-02-15T22:12:25.320Z,9.97
2019-02-15T22:14:55.157Z,6.93
2019-02-15T22:17:27.681Z,8.13
2019-02-15T22:19:58.233Z,7.87
2019-02-15T22:22:30.915Z,8.70
2019-02-15T22:25:00.667Z,11.60
2019-02-15T22:27:32.880Z,9.47
2019-02-15T22:30:03.144Z,9.93
2019-02-15T22:32:35.908Z,10.63
2019-02-15T22:35:05.860Z,12.67
2019-02-15T22:37:36.921Z,12.10
2019-02-15T22:40:23.599Z,14.23
2019-02-15T22:42:53.446Z,11.03
2019-02-15T22:45:23.024Z,13.77
2019-02-15T22:47:51.928Z,14.57
2019-02-15T22:50:21.135Z,11.30
2019-02-15T22:52:50.729Z,13.40
2019-02-15T22:55:20.685Z,11.47
2019-02-15T22:57:49.880Z,10.87
2019-02-15T23:00:25.719Z,10.37
2019-02-15T23:02:58.064Z,8.57
2019-02-15T23:05:28.174Z,10.10
2019-02-15T23:07:58.260Z,11.03
2019-02-15T23:10:28.124Z,8.03
2019-02-15T23:13:01.084Z,7.80
2019-02-15T23:15:30.914Z,6.53
2019-02-15T23:18:03.889Z,5.83
2019-02-15T23:20:33.459Z,6.53
2019-02-15T23:23:06.400Z,8.03
2019-02-15T23:25:36.017Z,6.03
2019-02-15T23:28:10.586Z,7.13
2019-02-15T23:30:40.429Z,8.00
2019-02-15T23:33:12.001Z,6.67
2019-02-15T23:35:42.601Z,8.20
2019-02-15T23:38:15.137Z,8.77
2019-02-15T23:40:44.664Z,8.27
2019-02-15T23:43:17.109Z,9.13
2019-02-15T23:45:46.656Z,7.73
2019-02-15T23:48:22.817Z,8.67
2019-02-15T23:50:55.161Z,9.77
2019-02-15T23:53:23.884Z,8.37
2019-02-15T23:55:53.470Z,6.33
2019-02-15T23:58:25.680Z,6.90
